createdAt,value
2023-04-15T00:00:59.849Z,100.00
2023-04-15T00:03:29.960Z,100.00
2023-04-15T00:05:58.663Z,100.00
2023-04-15T00:08:26.655Z,100.00
2023-04-15T00:10:54.796Z,100.00
2023-04-15T00:13:22.842Z,100.00
2023-04-15T00:15:50.802Z,100.00
2023-04-15T00:18:18.764Z,100.00
2023-04-15T00:20:47.227Z,100.00
2023-04-15T00:23:15.111Z,100.00
2023-04-15T00:25:43.303Z,100.00
2023-04-15T00:28:11.752Z,100.00
2023-04-15T00:30:39.891Z,100.00
2023-04-15T00:33:09.309Z,100.00
2023-04-15T00:35:37.656Z,100.00
2023-04-15T00:38:08.247Z,100.00
2023-04-15T00:40:36.418Z,100.00
2023-04-15T00:43:04.433Z,100.00
2023-04-15T00:45:33.575Z,100.00
2023-04-15T00:48:01.917Z,100.00
2023-04-15T00:50:30.098Z,100.00
2023-04-15T00:52:58.223Z,100.00
2023-04-15T00:55:26.845Z,100.00
2023-04-15T00:57:54.954Z,100.00
2023-04-15T01:00:23.548Z,100.00
2023-04-15T01:02:52.358Z,100.00
2023-04-15T01:05:20.476Z,100.00
2023-04-15T01:07:51.963Z,100.00
2023-04-15T01:10:20.027Z,100.00
2023-04-15T01:12:48.168Z,100.00
2023-04-15T01:15:16.264Z,100.00
2023-04-15T01:17:44.194Z,100.00
2023-04-15T01:20:13.109Z,100.00
2023-04-15T01:22:41.434Z,100.00
2023-04-15T01:25:17.851Z,100.00
2023-04-15T01:27:46.542Z,100.00
2023-04-15T01:30:14.657Z,100.00
2023-04-15T01:32:43.081Z,100.00
2023-04-15T01:35:11.015Z,100.00
2023-04-15T01:37:39.070Z,100.00
2023-04-15T01:40:08.078Z,100.00
2023-04-15T01:42:37.521Z,100.00
2023-04-15T01:45:06.415Z,100.00
2023-04-15T01:47:34.487Z,100.00
2023-04-15T01:50:03.507Z,100.00
2023-04-15T01:52:32.213Z,100.00
2023-04-15T01:55:00.203Z,100.00
2023-04-15T01:57:28.184Z,100.00
2023-04-15T01:59:56.743Z,100.00
2023-04-15T02:02:25.035Z,100.00
2023-04-15T02:04:53.624Z,100.00
2023-04-15T02:07:21.997Z,100.00
2023-04-15T02:09:50.080Z,100.00
2023-04-15T02:12:17.973Z,100.00
2023-04-15T02:14:46.572Z,100.00
2023-04-15T02:17:14.576Z,100.00
2023-04-15T02:19:44.602Z,100.00
2023-04-15T02:22:18.405Z,100.00
2023-04-15T02:24:47.561Z,100.00
2023-04-15T02:27:17.756Z,100.00
2023-04-15T02:29:46.361Z,100.00
2023-04-15T02:32:14.707Z,100.00
2023-04-15T02:34:43.228Z,100.00
2023-04-15T02:37:12.559Z,100.00
2023-04-15T02:39:40.900Z,100.00
2023-04-15T02:42:08.810Z,100.00
2023-04-15T02:44:38.097Z,100.00
2023-04-15T02:47:07.476Z,100.00
2023-04-15T02:49:35.926Z,100.00
2023-04-15T02:52:03.872Z,100.00
2023-04-15T02:54:34.150Z,100.00
2023-04-15T02:57:02.688Z,100.00
2023-04-15T02:59:30.867Z,100.00
2023-04-15T03:02:01.477Z,100.00
2023-04-15T03:04:30.910Z,100.00
2023-04-15T03:07:02.016Z,100.00
2023-04-15T03:09:30.294Z,100.00
2023-04-15T03:11:59.388Z,100.00
2023-04-15T03:14:27.365Z,100.00
2023-04-15T03:16:56.149Z,100.00
2023-04-15T03:19:25.240Z,100.00
2023-04-15T03:21:53.213Z,100.00
2023-04-15T03:24:21.534Z,100.00
2023-04-15T03:26:49.539Z,100.00
2023-04-15T03:29:18.131Z,100.00
2023-04-15T03:31:46.403Z,100.00
2023-04-15T03:34:14.614Z,100.00
2023-04-15T03:36:42.656Z,100.00
2023-04-15T03:39:11.041Z,100.00
2023-04-15T03:41:39.034Z,100.00
2023-04-15T03:44:07.102Z,100.00
2023-04-15T03:46:35.063Z,100.00
2023-04-15T03:49:03.533Z,100.00
2023-04-15T03:51:31.693Z,100.00
2023-04-15T03:54:00.043Z,100.00
2023-04-15T03:56:28.020Z,100.00
2023-04-15T03:58:56.199Z,100.00
2023-04-15T04:01:24.130Z,100.00
2023-04-15T04:03:52.388Z,100.00
2023-04-15T04:06:20.618Z,100.00
2023-04-15T04:08:48.858Z,100.00
2023-04-15T04:11:17.223Z,100.00
2023-04-15T04:13:45.450Z,100.00
2023-04-15T04:16:13.540Z,100.00
2023-04-15T04:18:41.554Z,100.00
2023-04-15T04:21:09.614Z,100.00
2023-04-15T04:23:37.711Z,100.00
2023-04-15T04:26:06.219Z,100.00
2023-04-15T04:28:35.345Z,100.00
2023-04-15T04:31:03.971Z,100.00
2023-04-15T04:33:32.298Z,100.00
2023-04-15T04:36:00.234Z,100.00
2023-04-15T04:38:28.165Z,100.00
2023-04-15T04:40:56.450Z,100.00
2023-04-15T04:43:24.450Z,100.00
2023-04-15T04:45:52.433Z,100.00
2023-04-15T04:48:20.653Z,100.00
2023-04-15T04:50:48.859Z,100.00
2023-04-15T04:53:17.454Z,100.00
2023-04-15T04:55:45.709Z,100.00
2023-04-15T04:58:13.797Z,100.00
2023-04-15T05:00:42.199Z,100.00
2023-04-15T05:03:10.559Z,100.00
2023-04-15T05:05:41.238Z,100.00
2023-04-15T05:08:09.143Z,100.00
2023-04-15T05:10:37.544Z,100.00
2023-04-15T05:13:05.600Z,100.00
2023-04-15T05:15:35.121Z,100.00
2023-04-15T05:18:03.235Z,100.00
2023-04-15T05:20:31.293Z,100.00
2023-04-15T05:22:59.339Z,100.00
2023-04-15T05:25:27.748Z,100.00
2023-04-15T05:27:58.869Z,100.00
2023-04-15T05:30:26.815Z,100.00
2023-04-15T05:32:55.430Z,100.00
2023-04-15T05:35:23.941Z,100.00
2023-04-15T05:37:51.832Z,100.00
2023-04-15T05:40:20.236Z,100.00
2023-04-15T05:42:48.326Z,100.00
2023-04-15T05:45:16.716Z,100.00
2023-04-15T05:47:44.936Z,100.00
2023-04-15T05:50:13.167Z,100.00
2023-04-15T05:52:41.161Z,100.00
2023-04-15T05:55:09.604Z,100.00
2023-04-15T05:57:37.891Z,100.00
2023-04-15T06:00:06.664Z,100.00
2023-04-15T06:02:40.594Z,100.00
2023-04-15T06:05:11.295Z,100.00
2023-04-15T06:07:39.344Z,100.00
2023-04-15T06:10:08.008Z,100.00
2023-04-15T06:12:36.268Z,100.00
2023-04-15T06:15:04.952Z,100.00
2023-04-15T06:17:32.928Z,100.00
2023-04-15T06:20:01.251Z,100.00
2023-04-15T06:22:31.547Z,100.00
2023-04-15T06:24:59.580Z,100.00
2023-04-15T06:27:27.492Z,100.00
2023-04-15T06:29:55.892Z,100.00
2023-04-15T06:32:24.475Z,100.00
2023-04-15T06:34:52.514Z,100.00
2023-04-15T06:37:20.784Z,100.00
2023-04-15T06:39:48.798Z,100.00
2023-04-15T06:42:16.903Z,100.00
2023-04-15T06:44:45.194Z,100.00
2023-04-15T06:47:14.913Z,100.00
2023-04-15T06:49:43.298Z,100.00
2023-04-15T06:52:11.481Z,100.00
2023-04-15T06:54:39.598Z,100.00
2023-04-15T06:57:07.868Z,100.00
2023-04-15T06:59:36.175Z,100.00
2023-04-15T07:02:04.982Z,100.00
2023-04-15T07:04:34.735Z,100.00
2023-04-15T07:07:02.882Z,100.00
2023-04-15T07:09:31.343Z,100.00
2023-04-15T07:11:59.292Z,100.00
2023-04-15T07:14:27.888Z,100.00
2023-04-15T07:16:56.544Z,100.00
2023-04-15T07:19:27.208Z,100.00
2023-04-15T07:21:55.405Z,100.00
2023-04-15T07:24:26.756Z,100.00
2023-04-15T07:26:59.451Z,100.00
2023-04-15T07:29:28.786Z,100.00
2023-04-15T07:31:57.340Z,100.00
2023-04-15T07:34:25.875Z,100.00
2023-04-15T07:36:53.898Z,100.00
2023-04-15T07:39:22.780Z,100.00
2023-04-15T07:41:50.729Z,100.00
2023-04-15T07:44:19.490Z,100.00
2023-04-15T07:46:47.999Z,100.00
2023-04-15T07:49:15.940Z,100.00
2023-04-15T07:51:44.544Z,100.00
2023-04-15T07:54:12.725Z,100.00
2023-04-15T07:56:41.421Z,100.00
2023-04-15T07:59:10.681Z,100.00
2023-04-15T08:01:39.020Z,100.00
2023-04-15T08:04:07.438Z,100.00
2023-04-15T08:06:35.495Z,100.00
2023-04-15T08:09:05.252Z,100.00
2023-04-15T08:11:33.600Z,100.00
2023-04-15T08:14:02.142Z,100.00
2023-04-15T08:16:30.167Z,100.00
2023-04-15T08:18:58.435Z,100.00
2023-04-15T08:21:27.777Z,100.00
2023-04-15T08:23:56.625Z,100.00
2023-04-15T08:26:24.754Z,100.00
2023-04-15T08:28:52.791Z,100.00
2023-04-15T08:31:21.129Z,100.00
2023-04-15T08:33:49.287Z,100.00
2023-04-15T08:36:17.786Z,100.00
2023-04-15T08:38:45.875Z,100.00
2023-04-15T08:41:49.021Z,98.05
2023-04-15T08:44:18.600Z,99.19
2023-04-15T08:46:47.617Z,96.05
2023-04-15T08:49:18.156Z,92.05
2023-04-15T08:51:46.466Z,94.59
2023-04-15T08:54:15.130Z,93.08
2023-04-15T08:56:43.294Z,90.52
2023-04-15T08:59:12.547Z,88.03
2023-04-15T09:01:41.647Z,95.80
2023-04-15T09:04:12.638Z,94.34
2023-04-15T09:06:41.508Z,88.16
2023-04-15T09:09:09.756Z,80.05
2023-04-15T09:11:37.863Z,80.23
2023-04-15T09:14:06.042Z,81.27
2023-04-15T09:17:02.042Z,84.43
2023-04-15T09:19:30.501Z,78.96
2023-04-15T09:22:17.245Z,80.32
2023-04-15T09:24:51.597Z,71.37
2023-04-15T09:27:21.068Z,63.49
2023-04-15T09:29:51.683Z,59.00
2023-04-15T09:32:21.294Z,59.55
2023-04-15T09:34:49.503Z,61.34
2023-04-15T09:37:31.761Z,66.77
2023-04-15T09:40:00.222Z,61.70
2023-04-15T09:42:28.762Z,62.90
2023-04-15T09:45:09.396Z,59.24
2023-04-15T09:47:37.907Z,56.24
2023-04-15T09:50:06.277Z,54.65
2023-04-15T09:52:34.301Z,55.81
2023-04-15T09:55:02.732Z,54.09
2023-04-15T09:57:36.510Z,50.34
2023-04-15T10:00:06.740Z,47.98
2023-04-15T10:02:35.862Z,45.05
2023-04-15T10:05:04.372Z,45.33
2023-04-15T10:07:32.761Z,47.70
2023-04-15T10:10:05.441Z,51.41
2023-04-15T10:12:33.647Z,53.29
2023-04-15T10:15:05.352Z,54.76
2023-04-15T10:17:35.549Z,56.27
2023-04-15T10:20:05.562Z,56.61
2023-04-15T10:22:33.653Z,54.94
2023-04-15T10:25:04.425Z,58.87
2023-04-15T10:27:33.882Z,57.68
2023-04-15T10:30:03.958Z,54.97
2023-04-15T10:32:34.292Z,55.65
2023-04-15T10:35:04.291Z,53.81
2023-04-15T10:37:37.591Z,53.11
2023-04-15T10:40:31.805Z,56.24
2023-04-15T10:43:02.054Z,51.34
2023-04-15T10:45:37.639Z,53.24
2023-04-15T10:48:08.838Z,49.41
2023-04-15T10:50:39.588Z,47.90
2023-04-15T10:53:10.807Z,47.50
2023-04-15T10:55:39.071Z,47.47
2023-04-15T10:58:08.799Z,45.96
2023-04-15T11:00:37.723Z,44.61
2023-04-15T11:03:09.923Z,45.02
2023-04-15T11:05:41.642Z,44.24
2023-04-15T11:08:10.956Z,43.67
2023-04-15T11:10:38.966Z,43.12
2023-04-15T11:13:10.233Z,43.32
2023-04-15T11:15:46.345Z,43.43
2023-04-15T11:18:26.494Z,42.96
2023-04-15T11:21:00.201Z,43.05
2023-04-15T11:23:47.806Z,40.90
2023-04-15T11:26:16.314Z,40.32
2023-04-15T11:28:46.131Z,41.41
2023-04-15T11:31:16.499Z,38.85
2023-04-15T11:33:55.571Z,38.81
2023-04-15T11:36:29.045Z,39.14
2023-04-15T11:38:58.922Z,40.15
2023-04-15T11:41:27.918Z,39.54
2023-04-15T11:43:56.158Z,39.81
2023-04-15T11:46:31.899Z,38.99
2023-04-15T11:49:00.397Z,37.22
2023-04-15T11:51:33.433Z,34.88
2023-04-15T11:54:02.997Z,33.91
2023-04-15T11:56:32.115Z,34.11
2023-04-15T11:59:00.180Z,34.39
2023-04-15T12:01:47.697Z,35.36
2023-04-15T12:04:22.581Z,35.75
2023-04-15T12:06:53.062Z,35.29
2023-04-15T12:09:21.759Z,35.25
2023-04-15T12:11:57.419Z,35.48
2023-04-15T12:14:25.442Z,35.54
2023-04-15T12:17:00.411Z,34.87
2023-04-15T12:19:32.726Z,34.74
2023-04-15T12:22:10.322Z,33.70
2023-04-15T12:24:39.748Z,33.28
2023-04-15T12:27:17.656Z,32.43
2023-04-15T12:29:45.729Z,33.74
2023-04-15T12:32:21.117Z,32.44
2023-04-15T12:34:54.560Z,33.14
2023-04-15T12:37:22.656Z,34.60
2023-04-15T12:39:54.091Z,35.74
2023-04-15T12:42:22.779Z,36.25
2023-04-15T12:44:50.759Z,36.07
2023-04-15T12:47:18.764Z,36.00
2023-04-15T12:49:49.644Z,37.19
2023-04-15T12:52:17.705Z,37.68
2023-04-15T12:54:45.798Z,35.59
2023-04-15T12:57:13.890Z,31.12
2023-04-15T12:59:42.042Z,29.27
2023-04-15T13:02:10.261Z,28.33
2023-04-15T13:04:38.437Z,27.61
2023-04-15T13:07:06.686Z,27.57
2023-04-15T13:09:34.813Z,27.08
2023-04-15T13:12:04.791Z,26.50
2023-04-15T13:14:32.906Z,27.42
2023-04-15T13:17:00.931Z,27.11
2023-04-15T13:19:29.552Z,25.58
2023-04-15T13:21:57.654Z,25.84
2023-04-15T13:24:26.119Z,26.09
2023-04-15T13:26:55.506Z,27.31
2023-04-15T13:29:24.349Z,27.45
2023-04-15T13:31:52.494Z,28.36
2023-04-15T13:34:21.008Z,29.16
2023-04-15T13:36:49.025Z,30.24
2023-04-15T13:39:17.076Z,31.51
2023-04-15T13:41:45.049Z,32.54
2023-04-15T13:44:13.615Z,32.66
2023-04-15T13:46:44.444Z,31.52
2023-04-15T13:49:12.800Z,30.50
2023-04-15T13:51:41.044Z,30.13
2023-04-15T13:54:09.243Z,29.63
2023-04-15T13:56:37.977Z,29.25
2023-04-15T13:59:07.358Z,28.31
2023-04-15T14:01:36.225Z,28.02
2023-04-15T14:04:04.505Z,28.23
2023-04-15T14:06:32.948Z,30.03
2023-04-15T14:09:01.448Z,32.58
2023-04-15T14:11:30.118Z,34.51
2023-04-15T14:13:58.182Z,34.90
2023-04-15T14:16:26.331Z,35.23
2023-04-15T14:18:54.260Z,34.99
2023-04-15T14:21:22.563Z,35.95
2023-04-15T14:23:50.583Z,36.81
2023-04-15T14:26:19.432Z,37.33
2023-04-15T14:28:48.451Z,37.70
2023-04-15T14:31:16.543Z,37.77
2023-04-15T14:33:45.148Z,37.99
2023-04-15T14:36:13.435Z,37.83
2023-04-15T14:38:41.905Z,38.10
2023-04-15T14:41:10.113Z,38.53
2023-04-15T14:43:39.602Z,38.92
2023-04-15T14:46:08.633Z,39.41
2023-04-15T14:48:37.237Z,39.02
2023-04-15T14:51:06.799Z,39.05
2023-04-15T14:53:35.841Z,39.30
2023-04-15T14:56:04.049Z,39.32
2023-04-15T14:58:33.295Z,39.52
2023-04-15T15:01:03.324Z,40.01
2023-04-15T15:03:32.123Z,40.24
2023-04-15T15:06:00.220Z,40.21
2023-04-15T15:08:29.943Z,40.67
2023-04-15T15:10:57.983Z,41.20
2023-04-15T15:13:25.989Z,41.59
2023-04-15T15:15:54.096Z,42.76
2023-04-15T15:18:22.353Z,47.51
2023-04-15T15:20:50.446Z,73.02
2023-04-15T15:23:18.910Z,96.56
2023-04-15T15:25:47.572Z,100.00
2023-04-15T15:28:18.369Z,100.00
2023-04-15T15:30:46.360Z,100.00
2023-04-15T15:33:16.570Z,100.00
2023-04-15T15:35:44.817Z,100.00
2023-04-15T15:38:13.216Z,100.00
2023-04-15T15:40:41.199Z,100.00
2023-04-15T15:43:09.325Z,100.00
2023-04-15T15:45:38.288Z,100.00
2023-04-15T15:48:07.206Z,88.41
2023-04-15T15:50:35.447Z,66.09
2023-04-15T15:53:03.601Z,58.11
2023-04-15T15:55:31.538Z,56.74
2023-04-15T15:57:59.600Z,53.02
2023-04-15T16:00:27.700Z,49.45
2023-04-15T16:03:06.606Z,47.42
2023-04-15T16:05:36.156Z,46.52
2023-04-15T16:08:04.310Z,47.71
2023-04-15T16:10:33.486Z,44.65
2023-04-15T16:13:02.625Z,44.05
2023-04-15T16:15:30.723Z,44.83
2023-04-15T16:18:01.445Z,44.52
2023-04-15T16:20:29.926Z,44.48
2023-04-15T16:22:59.307Z,43.12
2023-04-15T16:25:27.616Z,41.88
2023-04-15T16:28:03.549Z,42.24
2023-04-15T16:30:38.170Z,42.84
2023-04-15T16:33:06.951Z,42.79
2023-04-15T16:35:35.384Z,42.03
2023-04-15T16:38:03.662Z,42.61
2023-04-15T16:40:33.014Z,43.49
2023-04-15T16:43:03.009Z,45.70
2023-04-15T16:45:31.090Z,50.30
2023-04-15T16:47:59.337Z,53.50
2023-04-15T16:50:27.738Z,56.97
2023-04-15T16:52:55.961Z,59.31
2023-04-15T16:55:24.034Z,62.00
2023-04-15T16:58:00.698Z,66.71
2023-04-15T17:00:32.792Z,70.26
2023-04-15T17:03:01.273Z,70.81
2023-04-15T17:05:31.236Z,74.20
2023-04-15T17:07:59.385Z,83.43
2023-04-15T17:10:28.241Z,77.53
2023-04-15T17:12:57.574Z,83.29
2023-04-15T17:15:28.514Z,86.13
2023-04-15T17:17:56.540Z,81.84
2023-04-15T17:20:24.802Z,81.79
2023-04-15T17:22:52.854Z,87.48
2023-04-15T17:25:21.346Z,87.89
2023-04-15T17:27:49.387Z,93.91
2023-04-15T17:30:17.381Z,95.58
2023-04-15T17:32:45.394Z,100.00
2023-04-15T17:35:13.719Z,99.03
2023-04-15T17:37:41.673Z,96.18
2023-04-15T17:40:10.399Z,95.98
2023-04-15T17:42:38.548Z,98.56
2023-04-15T17:45:07.117Z,98.39
2023-04-15T17:47:35.210Z,95.99
2023-04-15T17:50:03.752Z,97.66
2023-04-15T17:52:32.058Z,99.74
2023-04-15T17:55:00.215Z,100.00
2023-04-15T17:57:28.749Z,100.00
2023-04-15T17:59:56.910Z,100.00
2023-04-15T18:02:25.031Z,100.00
2023-04-15T18:04:53.265Z,100.00
2023-04-15T18:07:21.507Z,100.00
2023-04-15T18:09:50.760Z,100.00
2023-04-15T18:12:18.900Z,100.00
2023-04-15T18:14:47.121Z,100.00
2023-04-15T18:17:15.401Z,100.00
2023-04-15T18:19:43.631Z,100.00
2023-04-15T18:22:12.392Z,100.00
2023-04-15T18:24:40.435Z,100.00
2023-04-15T18:27:08.552Z,100.00
2023-04-15T18:29:36.649Z,100.00
2023-04-15T18:32:05.030Z,100.00
2023-04-15T18:34:36.086Z,100.00
2023-04-15T18:37:05.591Z,100.00
2023-04-15T18:39:34.587Z,100.00
2023-04-15T18:42:02.658Z,100.00
2023-04-15T18:44:30.939Z,100.00
2023-04-15T18:46:58.936Z,100.00
2023-04-15T18:49:27.512Z,100.00
2023-04-15T18:51:55.620Z,100.00
2023-04-15T18:54:23.747Z,100.00
2023-04-15T18:56:51.909Z,100.00
2023-04-15T18:59:30.054Z,100.00
2023-04-15T19:02:00.061Z,100.00
2023-04-15T19:04:31.032Z,100.00
2023-04-15T19:06:59.342Z,100.00
2023-04-15T19:09:29.181Z,100.00
2023-04-15T19:11:57.694Z,100.00
2023-04-15T19:14:26.009Z,100.00
2023-04-15T19:16:54.142Z,100.00
2023-04-15T19:19:22.456Z,100.00
2023-04-15T19:21:52.414Z,100.00
2023-04-15T19:24:20.826Z,100.00
2023-04-15T19:26:51.072Z,100.00
2023-04-15T19:29:20.484Z,100.00
2023-04-15T19:31:48.695Z,100.00
2023-04-15T19:34:17.092Z,100.00
2023-04-15T19:36:45.552Z,100.00
2023-04-15T19:39:14.641Z,100.00
2023-04-15T19:41:44.489Z,100.00
2023-04-15T19:44:13.182Z,100.00
2023-04-15T19:46:43.658Z,100.00
2023-04-15T19:49:11.893Z,100.00
2023-04-15T19:51:40.022Z,100.00
2023-04-15T19:54:08.374Z,100.00
2023-04-15T19:56:37.540Z,100.00
2023-04-15T19:59:06.077Z,100.00
2023-04-15T20:01:34.309Z,100.00
2023-04-15T20:04:04.067Z,100.00
2023-04-15T20:06:32.757Z,100.00
2023-04-15T20:09:01.420Z,100.00
2023-04-15T20:12:45.606Z,100.00
2023-04-15T20:14:17.858Z,100.00
2023-04-15T20:16:47.084Z,100.00
2023-04-15T20:19:15.403Z,100.00
2023-04-15T20:21:43.442Z,100.00
2023-04-15T20:24:11.476Z,100.00
2023-04-15T20:26:39.407Z,100.00
2023-04-15T20:29:07.871Z,100.00
2023-04-15T20:31:36.434Z,100.00
2023-04-15T20:34:04.552Z,100.00
2023-04-15T20:36:32.567Z,100.00
2023-04-15T20:39:01.123Z,100.00
2023-04-15T20:41:29.208Z,100.00
2023-04-15T20:43:57.231Z,100.00
2023-04-15T20:46:27.312Z,100.00
2023-04-15T20:48:56.157Z,100.00
2023-04-15T20:51:24.330Z,100.00
2023-04-15T20:53:52.338Z,100.00
2023-04-15T20:56:20.445Z,100.00
2023-04-15T20:58:48.650Z,100.00
2023-04-15T21:01:16.836Z,100.00
2023-04-15T21:03:45.169Z,100.00
2023-04-15T21:06:13.299Z,100.00
2023-04-15T21:08:41.548Z,100.00
2023-04-15T21:11:10.303Z,100.00
2023-04-15T21:13:38.451Z,100.00
2023-04-15T21:16:06.507Z,100.00
2023-04-15T21:18:35.377Z,100.00
2023-04-15T21:21:03.839Z,100.00
2023-04-15T21:23:32.014Z,100.00
2023-04-15T21:26:00.054Z,100.00
2023-04-15T21:28:28.432Z,100.00
2023-04-15T21:30:59.522Z,100.00
2023-04-15T21:33:27.543Z,100.00
2023-04-15T21:35:55.935Z,100.00
2023-04-15T21:38:24.358Z,100.00
2023-04-15T21:40:52.407Z,100.00
2023-04-15T21:43:23.104Z,100.00
2023-04-15T21:46:21.794Z,100.00
2023-04-15T21:48:40.446Z,100.00
2023-04-15T21:51:08.410Z,100.00
2023-04-15T21:53:36.375Z,100.00
2023-04-15T21:56:04.642Z,100.00
2023-04-15T21:58:32.606Z,100.00
2023-04-15T22:01:00.643Z,100.00
2023-04-15T22:03:33.479Z,100.00
2023-04-15T22:06:05.191Z,100.00
2023-04-15T22:08:38.757Z,100.00
2023-04-15T22:11:21.643Z,100.00
2023-04-15T22:13:49.648Z,100.00
2023-04-15T22:16:17.745Z,100.00
2023-04-15T22:18:45.830Z,100.00
2023-04-15T22:21:14.075Z,100.00
2023-04-15T22:23:46.889Z,100.00
2023-04-15T22:26:15.021Z,100.00
2023-04-15T22:28:43.035Z,100.00
2023-04-15T22:31:11.473Z,100.00
2023-04-15T22:33:39.524Z,100.00
2023-04-15T22:36:07.497Z,100.00
2023-04-15T22:38:35.507Z,100.00
2023-04-15T22:41:03.510Z,100.00
2023-04-15T22:43:31.842Z,100.00
2023-04-15T22:46:00.995Z,100.00
2023-04-15T22:48:28.970Z,100.00
2023-04-15T22:50:57.272Z,100.00
2023-04-15T22:53:25.583Z,100.00
2023-04-15T22:55:54.064Z,100.00
2023-04-15T22:58:22.132Z,100.00
2023-04-15T23:00:50.530Z,100.00
2023-04-15T23:03:18.646Z,100.00
2023-04-15T23:05:47.107Z,100.00
2023-04-15T23:08:15.140Z,100.00
2023-04-15T23:10:44.701Z,100.00
2023-04-15T23:13:12.744Z,100.00
2023-04-15T23:15:40.868Z,100.00
2023-04-15T23:18:09.011Z,100.00
2023-04-15T23:20:37.045Z,100.00
2023-04-15T23:23:05.606Z,100.00
2023-04-15T23:25:33.682Z,100.00
2023-04-15T23:28:02.109Z,100.00
2023-04-15T23:30:30.506Z,100.00
2023-04-15T23:32:58.484Z,100.00
2023-04-15T23:35:27.337Z,100.00
2023-04-15T23:37:55.371Z,100.00
2023-04-15T23:40:23.313Z,100.00
2023-04-15T23:42:51.880Z,100.00
2023-04-15T23:45:19.832Z,100.00
2023-04-15T23:47:48.025Z,100.00
2023-04-15T23:50:16.173Z,100.00
2023-04-15T23:52:44.356Z,100.00
2023-04-15T23:55:12.324Z,100.00
2023-04-15T23:57:41.073Z,100.00
